createdAt,value
2018-06-22T00:00:23.058Z,12.37
2018-06-22T00:05:25.188Z,12.35
2018-06-22T00:10:27.330Z,12.35
2018-06-22T00:15:29.513Z,12.37
2018-06-22T00:20:31.674Z,12.51
2018-06-22T00:25:33.823Z,12.47
2018-06-22T00:30:35.956Z,12.49
2018-06-22T00:35:38.111Z,12.36
2018-06-22T00:40:40.221Z,12.44
2018-06-22T00:45:42.351Z,12.45
2018-06-22T00:50:44.489Z,12.49
2018-06-22T00:55:46.613Z,12.30
2018-06-22T01:00:48.747Z,12.33
2018-06-22T01:05:50.888Z,12.41
2018-06-22T01:10:52.994Z,12.39
2018-06-22T01:15:55.136Z,12.42
2018-06-22T01:20:57.265Z,12.41
2018-06-22T01:25:59.408Z,12.52
2018-06-22T01:31:01.584Z,12.55
2018-06-22T01:36:03.763Z,12.51
2018-06-22T01:41:05.882Z,12.44
2018-06-22T01:46:08.037Z,12.55
2018-06-22T01:51:10.167Z,12.56
2018-06-22T01:56:12.274Z,12.56
2018-06-22T02:01:14.365Z,12.43
2018-06-22T02:06:16.464Z,12.45
2018-06-22T02:11:18.630Z,12.48
2018-06-22T02:16:20.814Z,12.51
2018-06-22T02:21:22.974Z,12.48
2018-06-22T02:26:25.109Z,12.44
2018-06-22T02:31:27.246Z,12.56
2018-06-22T02:36:29.372Z,12.52
2018-06-22T02:41:31.493Z,12.49
2018-06-22T02:46:33.633Z,12.68
2018-06-22T02:51:35.916Z,12.67
2018-06-22T02:56:38.064Z,12.70
2018-06-22T03:01:40.197Z,12.72
2018-06-22T03:06:42.315Z,12.76
2018-06-22T03:11:44.419Z,12.77
2018-06-22T03:16:46.569Z,12.79
2018-06-22T03:21:48.662Z,12.79
2018-06-22T03:26:50.789Z,12.86
2018-06-22T03:31:52.941Z,12.88
2018-06-22T03:36:55.088Z,12.88
2018-06-22T03:41:57.215Z,12.81
2018-06-22T03:46:59.348Z,12.80
2018-06-22T03:52:01.468Z,12.84
2018-06-22T03:57:03.570Z,12.91
2018-06-22T04:02:05.770Z,12.79
2018-06-22T04:12:38.844Z,12.74
2018-06-22T04:17:47.075Z,12.81
2018-06-22T04:22:50.079Z,12.93
2018-06-22T04:27:52.558Z,12.83
2018-06-22T04:32:54.640Z,12.90
2018-06-22T04:37:56.826Z,12.99
2018-06-22T04:42:58.949Z,13.03
2018-06-22T04:48:01.084Z,13.07
2018-06-22T04:53:03.225Z,13.26
2018-06-22T04:58:05.344Z,13.31
2018-06-22T05:03:07.466Z,13.66
2018-06-22T05:08:09.916Z,13.57
2018-06-22T05:13:12.188Z,13.54
2018-06-22T05:18:14.343Z,13.73
2018-06-22T05:23:16.482Z,13.67
2018-06-22T05:28:18.588Z,13.85
2018-06-22T05:33:20.698Z,13.82
2018-06-22T05:38:22.838Z,13.90
2018-06-22T05:43:25.005Z,14.04
2018-06-22T05:48:27.180Z,13.96
2018-06-22T05:53:29.319Z,13.83
2018-06-22T05:58:31.470Z,13.93
2018-06-22T06:03:33.644Z,14.03
2018-06-22T06:08:35.809Z,14.15
2018-06-22T06:13:37.987Z,14.14
2018-06-22T06:18:40.152Z,14.28
2018-06-22T06:28:57.871Z,14.45
2018-06-22T06:33:59.965Z,14.42
2018-06-22T06:39:02.125Z,14.30
2018-06-22T06:44:04.285Z,14.30
2018-06-22T06:49:06.444Z,14.41
2018-06-22T06:54:08.571Z,14.50
2018-06-22T06:59:10.687Z,14.60
2018-06-22T07:04:12.829Z,14.79
2018-06-22T07:09:14.946Z,14.86
2018-06-22T07:14:17.141Z,15.10
2018-06-22T07:19:19.310Z,15.19
2018-06-22T07:24:21.489Z,15.24
2018-06-22T07:29:25.626Z,15.60
2018-06-22T07:34:27.744Z,15.77
2018-06-22T07:39:29.879Z,15.83
2018-06-22T07:44:32.087Z,16.33
2018-06-22T07:49:34.301Z,16.46
2018-06-22T07:54:36.479Z,16.08
2018-06-22T07:59:38.962Z,16.03
2018-06-22T08:04:41.122Z,16.36
2018-06-22T08:09:43.305Z,16.71
2018-06-22T08:14:45.442Z,16.44
2018-06-22T08:19:47.662Z,16.16
2018-06-22T08:24:49.893Z,16.54
2018-06-22T08:29:52.038Z,16.79
2018-06-22T08:34:54.192Z,17.09
2018-06-22T08:39:56.543Z,17.25
2018-06-22T08:44:58.672Z,17.11
2018-06-22T08:50:00.993Z,17.15
2018-06-22T08:55:03.132Z,17.29
2018-06-22T09:00:05.298Z,17.50
2018-06-22T09:05:07.619Z,17.77
2018-06-22T09:10:09.787Z,17.48
2018-06-22T09:15:11.954Z,17.76
2018-06-22T09:20:14.133Z,17.71
2018-06-22T09:25:16.299Z,17.48
2018-06-22T09:30:18.450Z,17.74
2018-06-22T09:35:21.006Z,17.73
2018-06-22T09:40:23.180Z,18.17
2018-06-22T09:45:25.337Z,18.08
2018-06-22T09:50:27.512Z,18.12
2018-06-22T09:55:29.667Z,17.92
2018-06-22T10:00:31.851Z,18.25
2018-06-22T10:05:33.974Z,18.14
2018-06-22T10:10:36.120Z,17.90
2018-06-22T10:15:38.300Z,17.98
2018-06-22T10:20:40.498Z,18.21
2018-06-22T10:25:43.247Z,17.76
2018-06-22T10:30:45.558Z,18.19
2018-06-22T10:35:47.804Z,18.64
2018-06-22T10:40:50.077Z,18.36
2018-06-22T10:45:52.244Z,18.12
2018-06-22T10:50:54.476Z,17.40
2018-06-22T10:55:56.734Z,18.46
2018-06-22T11:00:58.947Z,18.42
2018-06-22T11:06:06.568Z,18.63
2018-06-22T11:11:09.158Z,19.12
2018-06-22T11:16:18.154Z,19.59
2018-06-22T11:21:20.538Z,19.54
2018-06-22T11:26:22.726Z,19.29
2018-06-22T11:31:24.910Z,18.91
2018-06-22T11:36:27.164Z,18.99
2018-06-22T11:41:29.348Z,18.93
2018-06-22T11:46:31.528Z,18.82
2018-06-22T11:51:33.816Z,20.00
2018-06-22T11:56:35.978Z,19.44
2018-06-22T12:01:38.210Z,18.81
2018-06-22T12:06:40.451Z,18.63
2018-06-22T12:11:42.708Z,18.98
2018-06-22T12:16:44.875Z,19.07
2018-06-22T12:21:47.079Z,18.70
2018-06-22T12:26:49.253Z,18.84
2018-06-22T12:31:52.169Z,18.10
2018-06-22T12:36:54.356Z,18.50
2018-06-22T12:41:56.587Z,19.04
2018-06-22T12:46:58.803Z,19.94
2018-06-22T12:52:00.993Z,19.65
2018-06-22T12:57:03.247Z,20.00
2018-06-22T13:02:05.699Z,19.62
2018-06-22T13:07:07.897Z,18.62
2018-06-22T13:12:10.098Z,18.27
2018-06-22T13:17:12.446Z,18.28
2018-06-22T13:22:14.701Z,19.07
2018-06-22T13:27:16.864Z,18.84
2018-06-22T13:32:19.091Z,19.01
2018-06-22T13:37:21.278Z,18.93
2018-06-22T13:42:23.494Z,19.63
2018-06-22T13:47:25.701Z,19.72
2018-06-22T13:52:28.583Z,18.96
2018-06-22T13:57:30.808Z,19.81
2018-06-22T14:02:32.983Z,19.48
2018-06-22T14:07:35.196Z,18.85
2018-06-22T14:12:37.413Z,17.85
2018-06-22T14:17:39.710Z,18.65
2018-06-22T14:22:42.354Z,19.00
2018-06-22T14:27:44.611Z,17.85
2018-06-22T14:32:46.845Z,17.13
2018-06-22T14:37:49.127Z,17.28
2018-06-22T14:42:51.443Z,17.46
2018-06-22T14:47:53.645Z,17.49
2018-06-22T14:52:55.883Z,17.01
2018-06-22T14:58:03.700Z,17.12
2018-06-22T15:03:11.611Z,16.88
2018-06-22T15:08:18.658Z,16.86
2018-06-22T15:13:20.864Z,16.46
2018-06-22T15:18:23.053Z,16.23
2018-06-22T15:23:25.317Z,15.91
2018-06-22T15:28:27.524Z,16.00
2018-06-22T15:33:35.408Z,16.06
2018-06-22T15:38:43.316Z,16.12
2018-06-22T15:43:51.266Z,15.83
2018-06-22T15:48:59.243Z,15.67
2018-06-22T15:54:07.075Z,15.59
2018-06-22T15:59:09.343Z,15.71
2018-06-22T16:04:12.301Z,15.65
2018-06-22T16:09:14.488Z,15.66
2018-06-22T16:14:22.456Z,15.77
2018-06-22T16:19:30.408Z,15.92
2018-06-22T16:24:38.138Z,15.88
2018-06-22T16:29:40.323Z,15.61
2018-06-22T16:34:42.499Z,15.12
2018-06-22T16:39:44.719Z,15.06
2018-06-22T16:44:46.850Z,15.01
2018-06-22T16:49:49.017Z,14.96
2018-06-22T16:54:51.218Z,15.02
2018-06-22T16:59:53.392Z,15.06
2018-06-22T17:04:55.588Z,15.15
2018-06-22T17:10:03.526Z,15.03
2018-06-22T17:15:11.533Z,14.95
2018-06-22T17:20:13.721Z,14.93
2018-06-22T17:25:15.894Z,15.00
2018-06-22T17:30:18.063Z,15.11
2018-06-22T17:35:20.234Z,15.05
2018-06-22T17:40:22.412Z,15.01
2018-06-22T17:45:24.606Z,15.00
2018-06-22T17:50:29.100Z,14.93
2018-06-22T17:55:31.290Z,15.09
2018-06-22T18:00:39.125Z,15.07
2018-06-22T18:05:47.122Z,14.83
2018-06-22T18:10:55.113Z,14.73
2018-06-22T18:15:57.325Z,14.58
2018-06-22T18:21:00.296Z,14.63
2018-06-22T18:26:02.548Z,14.55
2018-06-22T18:31:04.976Z,14.41
2018-06-22T18:36:07.147Z,14.36
2018-06-22T18:41:09.348Z,14.28
2018-06-22T18:46:11.549Z,14.20
2018-06-22T18:51:13.757Z,14.12
2018-06-22T18:56:21.746Z,14.04
2018-06-22T19:01:29.745Z,14.08
2018-06-22T19:06:31.942Z,14.02
2018-06-22T19:11:34.152Z,13.96
2018-06-22T19:16:36.473Z,13.93
2018-06-22T19:21:38.770Z,13.85
2018-06-22T19:26:40.996Z,13.95
2018-06-22T19:31:43.193Z,13.97
2018-06-22T19:36:45.385Z,13.76
2018-06-22T19:41:47.591Z,13.86
2018-06-22T19:46:55.656Z,13.71
2018-06-22T19:52:03.522Z,13.72
2018-06-22T19:57:05.730Z,13.70
2018-06-22T20:02:07.949Z,13.67
2018-06-22T20:07:10.200Z,13.66
2018-06-22T20:12:12.400Z,13.70
2018-06-22T20:17:14.664Z,13.62
2018-06-22T20:22:16.854Z,13.57
2018-06-22T20:27:19.045Z,13.46
2018-06-22T20:32:21.284Z,13.56
2018-06-22T20:37:29.174Z,13.49
2018-06-22T20:42:37.098Z,13.51
2018-06-22T20:47:45.061Z,13.41
2018-06-22T20:52:47.237Z,13.40
2018-06-22T20:57:49.433Z,13.39
2018-06-22T21:02:51.633Z,13.44
2018-06-22T21:07:53.797Z,13.56
2018-06-22T21:12:56.147Z,13.54
2018-06-22T21:17:58.344Z,13.54
2018-06-22T21:23:00.533Z,13.54
2018-06-22T21:28:08.441Z,13.31
2018-06-22T21:33:16.428Z,13.22
2018-06-22T21:39:24.568Z,13.15
2018-06-22T21:44:26.782Z,13.12
2018-06-22T21:49:29.046Z,13.01
2018-06-22T21:54:31.264Z,12.93
2018-06-22T21:59:33.452Z,12.99
2018-06-22T22:04:35.619Z,13.01
2018-06-22T22:09:40.781Z,13.01
2018-06-22T22:14:42.993Z,12.94
2018-06-22T22:19:45.183Z,12.93
2018-06-22T22:24:47.441Z,12.91
2018-06-22T22:29:49.674Z,12.94
2018-06-22T22:34:51.929Z,12.84
2018-06-22T22:39:54.073Z,12.80
2018-06-22T22:44:56.360Z,12.77
2018-06-22T22:49:58.549Z,12.78
2018-06-22T22:55:01.273Z,12.84
2018-06-22T23:00:03.510Z,12.86
2018-06-22T23:05:05.696Z,12.84
2018-06-22T23:10:07.937Z,12.72
2018-06-22T23:15:10.175Z,12.69
2018-06-22T23:20:12.390Z,12.76
2018-06-22T23:25:14.769Z,12.80
2018-06-22T23:30:17.129Z,12.88
2018-06-22T23:35:24.187Z,12.66
2018-06-22T23:40:26.338Z,12.66
2018-06-22T23:45:28.524Z,12.73
2018-06-22T23:50:30.727Z,12.50
2018-06-22T23:55:33.157Z,12.64
